createdAt,value
2022-09-10T00:00:25.215Z,100984.44
2022-09-10T00:02:53.951Z,100981.25
2022-09-10T00:05:22.717Z,100975.88
2022-09-10T00:07:53.767Z,100981.97
2022-09-10T00:10:22.422Z,100976.63
2022-09-10T00:12:51.381Z,100975.88
2022-09-10T00:15:20.372Z,100961.94
2022-09-10T00:17:51.111Z,100963.19
2022-09-10T00:20:19.638Z,100962.47
2022-09-10T00:22:48.579Z,100962.47
2022-09-10T00:25:18.303Z,100958.56
2022-09-10T00:27:46.695Z,100961.75
2022-09-10T00:30:18.411Z,100957.06
2022-09-10T00:32:52.720Z,100955.03
2022-09-10T00:35:21.444Z,100959.06
2022-09-10T00:37:50.158Z,100960.50
2022-09-10T00:40:20.286Z,100958.31
2022-09-10T00:42:48.912Z,100963.19
2022-09-10T00:45:22.697Z,100962.06
2022-09-10T00:47:54.750Z,100961.38
2022-09-10T00:50:28.899Z,100960.78
2022-09-10T00:53:02.089Z,100964.06
2022-09-10T00:55:32.872Z,100966.84
2022-09-10T00:58:04.038Z,100966.97
2022-09-10T01:00:32.401Z,100965.16
2022-09-10T01:05:24.175Z,100963.94
2022-09-10T01:07:53.588Z,100973.69
2022-09-10T01:10:28.134Z,100961.09
2022-09-10T01:13:24.163Z,100978.19
2022-09-10T01:16:08.923Z,100967.88
2022-09-10T01:18:55.512Z,100958.09
2022-09-10T01:21:33.788Z,100956.09
2022-09-10T01:24:52.875Z,100958.00
2022-09-10T01:27:45.540Z,100954.50
2022-09-10T01:30:19.442Z,100966.25
2022-09-10T01:33:12.699Z,100965.25
2022-09-10T01:35:51.338Z,100955.44
2022-09-10T01:38:32.021Z,100960.56
2022-09-10T01:41:01.751Z,100961.06
2022-09-10T01:43:33.930Z,100962.13
2022-09-10T01:46:28.168Z,100966.03
2022-09-10T01:49:22.272Z,100963.06
2022-09-10T01:52:12.564Z,100956.72
2022-09-10T01:54:59.898Z,100961.84
2022-09-10T01:57:43.446Z,100958.66
2022-09-10T02:00:18.252Z,100958.91
2022-09-10T02:02:54.937Z,100963.19
2022-09-10T02:05:26.557Z,100963.31
2022-09-10T02:08:02.579Z,100966.06
2022-09-10T02:10:32.140Z,100977.09
2022-09-10T02:13:04.397Z,100976.03
2022-09-10T02:15:39.510Z,100967.50
2022-09-10T02:18:08.454Z,100969.59
2022-09-10T02:20:39.085Z,100965.50
2022-09-10T02:23:12.498Z,100969.16
2022-09-10T02:25:42.152Z,100960.97
2022-09-10T02:28:12.260Z,100956.81
2022-09-10T02:30:45.656Z,100955.44
2022-09-10T02:33:16.401Z,100946.88
2022-09-10T02:35:47.683Z,100952.66
2022-09-10T02:38:17.326Z,100956.00
2022-09-10T02:40:49.261Z,100956.09
2022-09-10T02:43:19.322Z,100956.59
2022-09-10T02:45:49.977Z,100951.69
2022-09-10T02:48:19.425Z,100954.59
2022-09-10T02:50:48.593Z,100949.25
2022-09-10T02:53:17.207Z,100949.25
2022-09-10T02:55:46.765Z,100941.19
2022-09-10T02:58:16.924Z,100942.91
2022-09-10T03:00:48.195Z,100940.97
2022-09-10T03:05:18.344Z,100928.16
2022-09-10T03:07:47.589Z,100930.56
2022-09-10T03:10:16.949Z,100928.03
2022-09-10T03:12:45.835Z,100930.25
2022-09-10T03:15:15.855Z,100932.56
2022-09-10T03:17:44.545Z,100921.56
2022-09-10T03:20:18.512Z,100931.81
2022-09-10T03:22:47.937Z,100927.28
2022-09-10T03:25:17.344Z,100923.13
2022-09-10T03:27:46.368Z,100928.72
2022-09-10T03:30:18.771Z,100923.09
2022-09-10T03:32:48.553Z,100928.22
2022-09-10T03:35:19.270Z,100924.81
2022-09-10T03:37:48.409Z,100913.06
2022-09-10T03:40:17.996Z,100920.63
2022-09-10T03:42:48.626Z,100916.25
2022-09-10T03:45:21.671Z,100912.81
2022-09-10T03:47:52.320Z,100924.06
2022-09-10T03:50:24.358Z,100916.72
2022-09-10T03:55:47.312Z,100919.41
2022-09-10T03:58:18.599Z,100923.22
2022-09-10T04:00:47.456Z,100921.38
2022-09-10T04:03:15.993Z,100919.78
2022-09-10T04:05:46.044Z,100918.19
2022-09-10T04:08:16.355Z,100930.78
2022-09-10T04:10:45.520Z,100940.16
2022-09-10T04:13:15.659Z,100930.84
2022-09-10T04:15:47.057Z,100932.09
2022-09-10T04:18:16.587Z,100934.31
2022-09-10T04:20:49.585Z,100928.31
2022-09-10T04:23:18.755Z,100930.53
2022-09-10T04:25:50.946Z,100936.31
2022-09-10T04:28:24.415Z,100926.63
2022-09-10T04:30:53.144Z,100928.63
2022-09-10T04:33:22.144Z,100923.34
2022-09-10T04:35:55.141Z,100927.25
2022-09-10T04:38:26.737Z,100926.94
2022-09-10T04:40:55.327Z,100934.47
2022-09-10T04:43:27.580Z,100929.00
2022-09-10T04:45:57.438Z,100936.22
2022-09-10T04:48:26.908Z,100929.97
2022-09-10T04:51:15.377Z,100942.78
2022-09-10T04:53:45.274Z,100934.84
2022-09-10T04:56:14.830Z,100935.09
2022-09-10T04:58:45.289Z,100939.75
2022-09-10T05:01:14.741Z,100931.69
2022-09-10T05:05:18.399Z,100931.44
2022-09-10T05:07:47.075Z,100931.19
2022-09-10T05:10:16.642Z,100929.59
2022-09-10T05:12:45.535Z,100931.63
2022-09-10T05:15:14.219Z,100935.53
2022-09-10T05:17:43.828Z,100934.78
2022-09-10T05:20:13.312Z,100936.69
2022-09-10T05:22:46.816Z,100932.53
2022-09-10T05:25:16.053Z,100932.91
2022-09-10T05:27:44.731Z,100929.97
2022-09-10T05:30:13.926Z,100939.47
2022-09-10T05:32:42.808Z,100942.72
2022-09-10T05:35:12.965Z,100939.34
2022-09-10T05:37:41.676Z,100933.13
2022-09-10T05:40:16.457Z,100931.88
2022-09-10T05:42:45.239Z,100927.78
2022-09-10T05:45:14.265Z,100920.31
2022-09-10T05:47:43.991Z,100929.38
2022-09-10T05:50:12.481Z,100927.06
2022-09-10T05:52:41.116Z,100923.00
2022-09-10T05:55:11.514Z,100932.00
2022-09-10T05:57:41.973Z,100933.19
2022-09-10T06:00:11.938Z,100920.16
2022-09-10T06:02:42.302Z,100935.78
2022-09-10T06:05:11.230Z,100931.31
2022-09-10T06:07:40.083Z,100935.06
2022-09-10T06:10:09.498Z,100935.38
2022-09-10T06:12:40.466Z,100930.63
2022-09-10T06:15:12.792Z,100934.78
2022-09-10T06:17:41.281Z,100935.53
2022-09-10T06:20:14.781Z,100934.75
2022-09-10T06:22:43.503Z,100944.63
2022-09-10T06:25:12.122Z,100941.66
2022-09-10T06:27:42.073Z,100934.53
2022-09-10T06:30:11.426Z,100941.84
2022-09-10T06:32:40.572Z,100937.53
2022-09-10T06:35:10.891Z,100936.44
2022-09-10T06:37:39.981Z,100929.56
2022-09-10T06:40:09.796Z,100937.66
2022-09-10T06:42:39.202Z,100938.06
2022-09-10T06:45:10.430Z,100940.13
2022-09-10T06:48:25.388Z,100933.94
2022-09-10T06:50:27.669Z,100937.53
2022-09-10T06:52:57.408Z,100930.75
2022-09-10T06:55:25.696Z,100932.88
2022-09-10T06:57:54.312Z,100925.22
2022-09-10T07:00:26.676Z,100922.88
2022-09-10T07:05:18.076Z,100928.59
2022-09-10T07:07:46.999Z,100933.06
2022-09-10T07:10:15.619Z,100936.63
2022-09-10T07:12:57.852Z,100937.78
2022-09-10T07:15:39.115Z,100947.81
2022-09-10T07:18:19.101Z,100962.47
2022-09-10T07:20:51.719Z,100976.03
2022-09-10T07:23:22.264Z,100992.09
2022-09-10T07:25:53.305Z,101009.19
2022-09-10T07:28:22.171Z,101012.25
2022-09-10T07:30:51.512Z,101021.44
2022-09-10T07:33:20.237Z,101023.78
2022-09-10T07:35:53.625Z,101026.25
2022-09-10T07:38:22.228Z,101021.66
2022-09-10T07:40:52.538Z,101011.13
2022-09-10T07:43:25.185Z,100999.69
2022-09-10T07:45:54.250Z,100998.44
2022-09-10T07:48:24.289Z,100989.31
2022-09-10T07:50:54.466Z,100954.88
2022-09-10T07:53:24.007Z,100947.88
2022-09-10T07:56:03.518Z,100939.72
2022-09-10T07:58:34.182Z,100924.88
2022-09-10T08:01:03.696Z,100906.75
2022-09-10T08:03:33.037Z,100892.97
2022-09-10T08:06:06.243Z,100883.50
2022-09-10T08:08:37.517Z,100869.66
2022-09-10T08:11:11.757Z,100863.56
2022-09-10T08:13:41.639Z,100867.22
2022-09-10T08:16:12.714Z,100872.06
2022-09-10T08:18:41.281Z,100870.28
2022-09-10T08:21:12.432Z,100876.69
2022-09-10T08:23:41.853Z,100875.41
2022-09-10T08:26:11.245Z,100883.19
2022-09-10T08:28:40.438Z,100881.97
2022-09-10T08:31:11.858Z,100884.19
2022-09-10T08:33:41.789Z,100878.63
2022-09-10T08:36:14.817Z,100880.94
2022-09-10T08:38:44.192Z,100886.75
2022-09-10T08:41:24.319Z,100890.56
2022-09-10T08:43:57.449Z,100891.66
2022-09-10T08:46:31.991Z,100888.03
2022-09-10T08:49:12.583Z,100887.06
2022-09-10T08:51:45.692Z,100893.50
2022-09-10T08:54:18.739Z,100894.09
2022-09-10T08:56:50.497Z,100899.03
2022-09-10T08:59:26.895Z,100896.53
2022-09-10T09:05:22.230Z,100879.25
2022-09-10T09:07:52.535Z,100886.75
2022-09-10T09:10:31.560Z,100892.06
2022-09-10T09:13:23.352Z,100889.66
2022-09-10T09:15:59.061Z,100878.38
2022-09-10T09:18:38.727Z,100881.03
2022-09-10T09:21:14.599Z,100885.28
2022-09-10T09:24:13.464Z,100880.66
2022-09-10T09:26:46.832Z,100876.16
2022-09-10T09:29:20.507Z,100886.72
2022-09-10T09:31:53.124Z,100881.69
2022-09-10T09:34:29.366Z,100894.59
2022-09-10T09:37:04.261Z,100894.69
2022-09-10T09:39:43.795Z,100882.69
2022-09-10T09:42:21.003Z,100876.44
2022-09-10T09:44:57.258Z,100891.66
2022-09-10T09:47:29.510Z,100882.63
2022-09-10T09:49:57.948Z,100887.75
2022-09-10T09:52:33.455Z,100877.19
2022-09-10T09:55:15.575Z,100882.16
2022-09-10T09:57:45.140Z,100882.41
2022-09-10T10:00:37.914Z,100885.84
2022-09-10T10:03:14.397Z,100891.25
2022-09-10T10:05:50.002Z,100890.84
2022-09-10T10:08:31.296Z,100884.66
2022-09-10T10:11:00.223Z,100891.16
2022-09-10T10:13:39.137Z,100893.78
2022-09-10T10:16:19.570Z,100881.38
2022-09-10T10:18:52.394Z,100888.59
2022-09-10T10:21:22.596Z,100883.03
2022-09-10T10:23:52.485Z,100884.44
2022-09-10T10:26:34.168Z,100869.50
2022-09-10T10:29:07.008Z,100873.56
2022-09-10T10:31:43.874Z,100873.63
2022-09-10T10:34:39.016Z,100879.09
2022-09-10T10:37:14.873Z,100885.72
2022-09-10T10:40:03.432Z,100886.34
2022-09-10T10:42:39.657Z,100889.31
2022-09-10T10:45:40.512Z,100885.94
2022-09-10T10:48:13.936Z,100881.31
2022-09-10T10:50:55.104Z,100877.53
2022-09-10T10:53:39.132Z,100886.53
2022-09-10T10:56:16.176Z,100886.31
2022-09-10T10:59:01.270Z,100880.16
2022-09-10T11:01:34.230Z,100885.72
2022-09-10T11:05:26.958Z,100881.44
2022-09-10T11:08:00.623Z,100878.75
2022-09-10T11:10:34.617Z,100885.25
2022-09-10T11:13:10.413Z,100888.94
2022-09-10T11:15:49.001Z,100889.56
2022-09-10T11:18:27.550Z,100889.31
2022-09-10T11:21:03.960Z,100876.66
2022-09-10T11:23:40.690Z,100879.88
2022-09-10T11:26:14.603Z,100885.38
2022-09-10T11:28:52.576Z,100888.50
2022-09-10T11:31:34.010Z,100868.75
2022-09-10T11:34:07.027Z,100873.19
2022-09-10T11:36:54.317Z,100864.69
2022-09-10T11:39:34.066Z,100867.81
2022-09-10T11:42:10.414Z,100879.56
2022-09-10T11:44:50.296Z,100871.34
2022-09-10T11:47:24.225Z,100867.63
2022-09-10T11:50:01.571Z,100869.22
2022-09-10T11:52:34.414Z,100867.75
2022-09-10T11:55:04.941Z,100861.97
2022-09-10T11:57:41.386Z,100855.63
2022-09-10T12:00:17.661Z,100869.97
2022-09-10T12:03:23.897Z,100856.09
2022-09-10T12:06:09.333Z,100865.06
2022-09-10T12:08:55.568Z,100867.75
2022-09-10T12:11:30.063Z,100871.81
2022-09-10T12:14:01.356Z,100862.59
2022-09-10T12:16:41.554Z,100872.25
2022-09-10T12:19:22.545Z,100869.78
2022-09-10T12:21:53.571Z,100872.88
2022-09-10T12:24:32.994Z,100871.78
2022-09-10T12:27:02.714Z,100867.88
2022-09-10T12:29:37.592Z,100876.53
2022-09-10T12:32:38.214Z,100872.31
2022-09-10T12:35:44.921Z,100871.47
2022-09-10T12:38:59.221Z,100875.66
2022-09-10T12:41:59.417Z,100878.47
2022-09-10T12:44:43.959Z,100886.56
2022-09-10T12:47:50.589Z,100886.41
2022-09-10T12:50:46.802Z,100880.16
2022-09-10T12:54:07.339Z,100882.53
2022-09-10T12:57:08.372Z,100882.22
2022-09-10T13:00:12.247Z,100885.09
2022-09-10T13:05:26.410Z,100882.16
2022-09-10T13:08:12.193Z,100887.59
2022-09-10T13:10:42.383Z,100876.16
2022-09-10T13:13:35.854Z,100876.69
2022-09-10T13:16:07.324Z,100891.03
2022-09-10T13:18:43.029Z,100886.97
2022-09-10T13:21:52.933Z,100889.16
2022-09-10T13:25:00.661Z,100901.91
2022-09-10T13:27:41.858Z,100896.63
2022-09-10T13:30:18.170Z,100894.41
2022-09-10T13:32:52.830Z,100897.66
2022-09-10T13:35:47.709Z,100895.75
2022-09-10T13:38:52.701Z,100894.91
2022-09-10T13:41:56.593Z,100902.88
2022-09-10T13:44:45.861Z,100899.81
2022-09-10T13:47:20.709Z,100906.06
2022-09-10T13:49:55.596Z,100896.69
2022-09-10T13:52:29.446Z,100904.81
2022-09-10T13:54:59.676Z,100899.38
2022-09-10T13:57:32.316Z,100906.09
2022-09-10T14:00:08.248Z,100900.50
2022-09-10T14:02:48.405Z,100902.47
2022-09-10T14:05:27.174Z,100900.06
2022-09-10T14:07:58.326Z,100899.59
2022-09-10T14:10:27.221Z,100893.78
2022-09-10T14:12:57.447Z,100893.41
2022-09-10T14:15:39.330Z,100894.16
2022-09-10T14:18:11.202Z,100902.53
2022-09-10T14:20:42.823Z,100891.44
2022-09-10T14:23:19.297Z,100894.41
2022-09-10T14:25:48.912Z,100893.78
2022-09-10T14:28:29.929Z,100893.34
2022-09-10T14:31:25.051Z,100893.63
2022-09-10T14:33:55.098Z,100885.56
2022-09-10T14:36:35.268Z,100887.91
2022-09-10T14:39:07.586Z,100879.09
2022-09-10T14:41:37.855Z,100878.91
2022-09-10T14:44:17.897Z,100878.34
2022-09-10T14:46:53.279Z,100877.56
2022-09-10T14:49:27.968Z,100884.13
2022-09-10T14:51:58.520Z,100882.31
2022-09-10T14:54:27.216Z,100893.41
2022-09-10T14:56:58.239Z,100898.28
2022-09-10T14:59:31.855Z,100903.84
2022-09-10T15:05:19.432Z,100908.94
2022-09-10T15:07:49.023Z,100909.13
2022-09-10T15:10:18.489Z,100914.19
2022-09-10T15:12:56.335Z,100906.84
2022-09-10T15:15:27.227Z,100916.06
2022-09-10T15:17:59.048Z,100919.75
2022-09-10T15:20:29.122Z,100920.28
2022-09-10T15:22:58.219Z,100927.81
2022-09-10T15:25:37.977Z,100932.91
2022-09-10T15:28:06.970Z,100936.00
2022-09-10T15:30:36.214Z,100930.38
2022-09-10T15:33:05.721Z,100923.72
2022-09-10T15:35:36.961Z,100928.06
2022-09-10T15:38:05.169Z,100920.88
2022-09-10T15:40:34.020Z,100933.69
2022-09-10T15:43:02.780Z,100925.97
2022-09-10T15:45:33.535Z,100935.47
2022-09-10T15:48:02.531Z,100940.16
2022-09-10T15:50:32.410Z,100934.44
2022-09-10T15:53:02.011Z,100926.25
2022-09-10T15:55:31.772Z,100934.44
2022-09-10T15:58:01.669Z,100933.00
2022-09-10T16:00:34.291Z,100928.00
2022-09-10T16:03:03.250Z,100930.00
2022-09-10T16:05:35.440Z,100925.28
2022-09-10T16:08:05.395Z,100922.53
2022-09-10T16:10:39.813Z,100916.25
2022-09-10T16:13:08.277Z,100922.09
2022-09-10T16:15:38.911Z,100918.56
2022-09-10T16:18:07.792Z,100921.19
2022-09-10T16:20:36.690Z,100913.34
2022-09-10T16:23:06.874Z,100922.56
2022-09-10T16:25:35.152Z,100920.38
2022-09-10T16:28:03.944Z,100930.44
2022-09-10T16:30:32.386Z,100932.41
2022-09-10T16:33:01.317Z,100930.84
2022-09-10T16:35:29.885Z,100942.13
2022-09-10T16:38:00.584Z,100941.81
2022-09-10T16:40:31.430Z,100947.50
2022-09-10T16:42:59.710Z,100953.38
2022-09-10T16:45:31.433Z,100958.13
2022-09-10T16:48:04.111Z,100951.50
2022-09-10T16:50:34.490Z,100962.75
2022-09-10T16:53:10.125Z,100960.53
2022-09-10T16:55:42.613Z,100964.91
2022-09-10T16:58:11.812Z,100967.03
2022-09-10T17:00:43.239Z,100957.75
2022-09-10T17:05:17.812Z,100959.22
2022-09-10T17:07:46.919Z,100956.81
2022-09-10T17:10:15.907Z,100964.91
2022-09-10T17:12:44.752Z,100955.78
2022-09-10T17:15:13.125Z,100942.56
2022-09-10T17:17:43.310Z,100957.75
2022-09-10T17:20:12.883Z,100955.41
2022-09-10T17:22:42.800Z,100963.72
2022-09-10T17:25:11.815Z,100959.13
2022-09-10T17:27:40.980Z,100962.94
2022-09-10T17:30:12.230Z,100970.06
2022-09-10T17:32:41.302Z,100974.63
2022-09-10T17:35:12.656Z,100980.44
2022-09-10T17:37:42.571Z,100983.91
2022-09-10T17:40:14.353Z,100989.94
2022-09-10T17:42:49.280Z,100994.81
2022-09-10T17:45:19.645Z,100995.06
2022-09-10T17:47:49.002Z,101000.88
2022-09-10T17:50:18.769Z,101004.59
2022-09-10T17:52:49.486Z,101004.59
2022-09-10T17:55:18.947Z,101001.19
2022-09-10T17:57:47.383Z,101010.03
2022-09-10T18:00:17.856Z,101025.09
2022-09-10T18:02:46.154Z,101023.25
2022-09-10T18:05:15.014Z,101028.56
2022-09-10T18:07:47.670Z,101036.88
2022-09-10T18:10:19.271Z,101034.34
2022-09-10T18:12:48.825Z,101041.03
2022-09-10T18:15:20.271Z,101038.66
2022-09-10T18:17:49.147Z,101050.69
2022-09-10T18:20:18.441Z,101049.16
2022-09-10T18:22:47.872Z,101051.00
2022-09-10T18:25:20.148Z,101047.31
2022-09-10T18:27:51.772Z,101056.69
2022-09-10T18:30:20.710Z,101057.59
2022-09-10T18:32:52.162Z,101060.16
2022-09-10T18:35:21.475Z,101062.47
2022-09-10T18:37:53.541Z,101068.56
2022-09-10T18:40:23.831Z,101063.88
2022-09-10T18:42:53.370Z,101066.16
2022-09-10T18:45:22.560Z,101069.84
2022-09-10T18:47:53.583Z,101070.44
2022-09-10T18:50:22.661Z,101076.84
2022-09-10T18:52:53.551Z,101082.06
2022-09-10T18:55:27.109Z,101081.25
2022-09-10T18:57:56.826Z,101075.25
2022-09-10T19:00:25.428Z,101077.56
2022-09-10T19:05:21.007Z,101071.59
2022-09-10T19:07:49.957Z,101078.97
2022-09-10T19:10:18.596Z,101080.69
2022-09-10T19:12:47.541Z,101084.41
2022-09-10T19:15:16.329Z,101087.81
2022-09-10T19:17:45.274Z,101102.19
2022-09-10T19:20:14.687Z,101098.06
2022-09-10T19:22:45.771Z,101099.75
2022-09-10T19:25:14.870Z,101099.75
2022-09-10T19:27:45.353Z,101105.16
2022-09-10T19:30:14.623Z,101102.34
2022-09-10T19:32:44.230Z,101099.47
2022-09-10T19:35:15.785Z,101103.19
2022-09-10T19:37:49.894Z,101102.47
2022-09-10T19:40:18.551Z,101109.72
2022-09-10T19:42:46.969Z,101105.44
2022-09-10T19:45:16.735Z,101106.88
2022-09-10T19:47:46.377Z,101101.19
2022-09-10T19:50:15.462Z,101104.28
2022-09-10T19:52:48.433Z,101102.59
2022-09-10T19:55:19.598Z,101094.63
2022-09-10T19:57:48.470Z,101096.91
2022-09-10T20:00:43.128Z,101097.50
2022-09-10T20:03:10.012Z,101097.75
2022-09-10T20:05:42.945Z,101093.63
2022-09-10T20:08:14.169Z,101086.53
2022-09-10T20:10:52.091Z,101094.63
2022-09-10T20:13:20.657Z,101096.31
2022-09-10T20:15:49.602Z,101094.63
2022-09-10T20:18:19.357Z,101092.75
2022-09-10T20:20:48.558Z,101094.47
2022-09-10T20:23:19.549Z,101098.03
2022-09-10T20:25:48.566Z,101096.06
2022-09-10T20:28:19.462Z,101103.16
2022-09-10T20:30:48.616Z,101103.88
2022-09-10T20:33:22.910Z,101113.72
2022-09-10T20:35:51.554Z,101111.72
2022-09-10T20:38:21.935Z,101114.56
2022-09-10T20:40:50.833Z,101115.16
2022-09-10T20:43:20.148Z,101112.44
2022-09-10T20:45:49.661Z,101108.72
2022-09-10T20:48:18.165Z,101119.13
2022-09-10T20:50:53.513Z,101117.13
2022-09-10T20:53:25.222Z,101119.13
2022-09-10T20:55:54.350Z,101122.81
2022-09-10T20:58:24.355Z,101129.50
2022-09-10T21:00:53.093Z,101128.34
2022-09-10T21:05:20.805Z,101129.47
2022-09-10T21:07:51.174Z,101135.34
2022-09-10T21:10:19.816Z,101137.59
2022-09-10T21:12:50.074Z,101143.56
2022-09-10T21:15:19.171Z,101146.69
2022-09-10T21:17:49.297Z,101138.16
2022-09-10T21:20:21.142Z,101140.69
2022-09-10T21:22:50.709Z,101140.69
2022-09-10T21:25:19.673Z,101140.72
2022-09-10T21:27:48.361Z,101136.75
2022-09-10T21:30:17.321Z,101136.91
2022-09-10T21:32:46.454Z,101126.19
2022-09-10T21:35:16.511Z,101135.72
2022-09-10T21:37:47.001Z,101135.81
2022-09-10T21:40:15.543Z,101132.69
2022-09-10T21:42:51.465Z,101132.97
2022-09-10T21:45:23.290Z,101138.66
2022-09-10T21:47:54.395Z,101140.38
2022-09-10T21:50:24.232Z,101144.94
2022-09-10T21:52:54.683Z,101148.22
2022-09-10T21:55:23.428Z,101154.22
2022-09-10T21:57:55.059Z,101155.94
2022-09-10T22:00:25.612Z,101160.47
2022-09-10T22:02:55.415Z,101158.03
2022-09-10T22:05:30.918Z,101168.28
2022-09-10T22:08:03.081Z,101171.41
2022-09-10T22:10:32.581Z,101180.97
2022-09-10T22:13:01.062Z,101188.78
2022-09-10T22:15:29.450Z,101186.06
2022-09-10T22:17:58.003Z,101192.03
2022-09-10T22:20:26.986Z,101196.28
2022-09-10T22:22:55.310Z,101197.13
2022-09-10T22:25:28.437Z,101201.69
2022-09-10T22:27:58.374Z,101204.47
2022-09-10T22:30:28.290Z,101210.91
2022-09-10T22:32:57.534Z,101203.78
2022-09-10T22:35:31.453Z,101203.59
2022-09-10T22:38:00.395Z,101208.34
2022-09-10T22:40:32.695Z,101215.09
2022-09-10T22:43:04.958Z,101221.19
2022-09-10T22:45:34.810Z,101221.34
2022-09-10T22:48:06.497Z,101218.84
2022-09-10T22:50:36.865Z,101233.50
2022-09-10T22:53:08.403Z,101232.56
2022-09-10T22:55:46.878Z,101231.22
2022-09-10T22:58:19.057Z,101235.88
2022-09-10T23:00:47.309Z,101241.56
2022-09-10T23:05:18.586Z,101226.47
2022-09-10T23:07:46.943Z,101233.00
2022-09-10T23:10:18.447Z,101233.25
2022-09-10T23:12:47.409Z,101243.66
2022-09-10T23:15:19.474Z,101240.84
2022-09-10T23:17:49.801Z,101245.16
2022-09-10T23:20:20.554Z,101238.63
2022-09-10T23:22:54.207Z,101240.63
2022-09-10T23:25:23.661Z,101241.34
2022-09-10T23:27:56.503Z,101238.44
2022-09-10T23:30:25.005Z,101242.59
2022-09-10T23:32:54.257Z,101250.22
2022-09-10T23:35:24.679Z,101246.81
2022-09-10T23:37:54.281Z,101253.28
2022-09-10T23:40:28.906Z,101251.34
2022-09-10T23:43:02.358Z,101251.69
2022-09-10T23:45:31.023Z,101258.59
2022-09-10T23:47:59.331Z,101259.78
2022-09-10T23:50:29.935Z,101261.25
2022-09-10T23:52:58.303Z,101269.13
2022-09-10T23:55:26.927Z,101264.22
2022-09-10T23:57:56.739Z,101262.97
